Time;durP1;ratioP1;P1;durP2;ratioP2;P2;SDS_P1;SDS_P2;PMS_P1;PMS_P2;Temp;Humidity;BMP_temperature;BMP_pressure;BME280_temperature;BME280_humidity;BME280_pressure;Samples;Min_cycle;Max_cycle;Signal;HPM_P1;HPM_P2
2021/08/26 00:09:15;;;;;;;5.30;4.50;;;;;;;12.87;74.18;99678.46;226864;1207;138252;-72
2021/08/26 00:14:19;;;;;;;6.20;4.80;;;;;;;12.84;74.38;99671.35;226911;1201;137853;-73
2021/08/26 00:19:21;;;;;;;6.80;5.00;;;;;;;12.85;74.31;99666.85;227397;1207;138338;-72
2021/08/26 00:24:22;;;;;;;7.90;5.30;;;;;;;12.90;74.10;99654.54;226872;1207;138484;-72
2021/08/26 00:29:24;;;;;;;6.80;5.40;;;;;;;12.94;73.80;99647.33;226830;1200;138262;-73
2021/08/26 00:34:26;;;;;;;8.40;4.90;;;;;;;12.92;73.83;99633.67;226878;1200;137991;-71
2021/08/26 00:39:27;;;;;;;7.30;5.70;;;;;;;12.90;74.01;99630.31;226869;1204;138351;-72
2021/08/26 00:44:29;;;;;;;6.40;4.90;;;;;;;12.91;74.19;99626.19;226862;1207;138881;-72
2021/08/26 00:49:31;;;;;;;7.80;5.40;;;;;;;12.93;74.07;99616.83;226910;1201;139084;-73
2021/08/26 00:54:33;;;;;;;6.80;5.30;;;;;;;12.95;74.02;99612.64;226921;1208;139268;-72
2021/08/26 00:59:35;;;;;;;6.90;5.70;;;;;;;12.92;74.10;99602.70;227052;1201;138162;-72
2021/08/26 01:04:39;;;;;;;5.90;5.30;;;;;;;12.86;74.41;99605.73;227087;1206;138224;-72
2021/08/26 01:09:44;;;;;;;7.50;5.80;;;;;;;12.83;74.69;99598.48;226972;1200;137959;-71
2021/08/26 01:14:47;;;;;;;8.80;5.30;;;;;;;12.81;74.91;99590.46;227139;1208;138830;-70
2021/08/26 01:19:50;;;;;;;8.50;5.50;;;;;;;12.84;74.71;99588.09;227299;1206;138739;-73
2021/08/26 01:25:08;;;;;;;7.70;5.60;;;;;;;12.88;74.95;99591.16;227077;1207;138108;-72
2021/08/26 01:30:14;;;;;;;6.70;5.40;;;;;;;12.84;74.98;99595.09;227293;1207;137783;-71
2021/08/26 01:35:16;;;;;;;9.40;6.30;;;;;;;12.78;75.90;99594.02;227381;1201;138193;-72
2021/08/26 01:40:35;;;;;;;6.80;5.10;;;;;;;12.71;76.94;99592.38;226854;1207;138952;-73
2021/08/26 01:45:40;;;;;;;9.10;6.10;;;;;;;12.66;77.76;99587.68;227396;1207;138909;-72
2021/08/26 01:50:47;;;;;;;7.80;5.50;;;;;;;12.59;78.61;99583.96;227553;1207;138338;-73
2021/08/26 01:55:49;;;;;;;9.90;5.90;;;;;;;12.49;79.54;99577.02;227492;1208;137960;-70
2021/08/26 02:00:51;;;;;;;8.70;5.50;;;;;;;12.42;80.21;99572.73;227014;1207;138198;-71
2021/08/26 02:05:52;;;;;;;8.30;6.20;;;;;;;12.43;80.65;99564.81;226969;1202;138702;-72
2021/08/26 02:10:56;;;;;;;7.30;5.60;;;;;;;12.47;80.99;99566.98;227005;1207;138394;-73
2021/08/26 02:15:58;;;;;;;9.30;6.00;;;;;;;12.42;81.42;99559.85;227248;1201;138074;-72
2021/08/26 02:21:00;;;;;;;7.20;5.60;;;;;;;12.38;81.66;99553.77;227407;1201;138357;-73
2021/08/26 02:26:02;;;;;;;9.30;6.00;;;;;;;12.35;82.17;99548.35;227027;1208;139183;-73
2021/08/26 02:31:04;;;;;;;8.20;6.00;;;;;;;12.33;82.30;99538.35;227205;1208;139068;-72
2021/08/26 02:36:05;;;;;;;9.70;6.10;;;;;;;12.31;82.76;99536.08;227055;1208;138253;-72
2021/08/26 02:41:07;;;;;;;8.60;5.30;;;;;;;12.27;82.95;99536.54;227032;1208;139189;-70
2021/08/26 02:46:09;;;;;;;11.00;6.40;;;;;;;12.24;83.25;99536.44;227062;1208;140878;-70
2021/08/26 02:51:11;;;;;;;9.40;5.70;;;;;;;12.25;83.48;99537.13;231431;1208;138373;-71
2021/08/26 02:56:13;;;;;;;8.30;5.40;;;;;;;12.25;83.57;99532.59;230549;1201;138904;-72
2021/08/26 03:01:14;;;;;;;8.10;5.80;;;;;;;12.20;83.99;99529.86;227586;1206;138120;-72
2021/08/26 03:06:16;;;;;;;7.90;5.90;;;;;;;12.18;84.38;99521.91;228200;1202;138799;-71
2021/08/26 03:11:17;;;;;;;7.40;5.70;;;;;;;12.23;84.63;99519.60;227335;1208;138480;-71
2021/08/26 03:16:19;;;;;;;9.50;5.90;;;;;;;12.24;84.42;99521.77;226968;1202;137827;-72
2021/08/26 03:21:21;;;;;;;7.80;6.00;;;;;;;12.20;85.16;99516.38;227068;1208;140568;-71
2021/08/26 03:26:22;;;;;;;8.10;5.70;;;;;;;12.23;85.41;99517.08;227108;1208;138547;-71
2021/08/26 03:31:24;;;;;;;8.40;5.60;;;;;;;12.24;85.55;99520.71;227152;1208;138073;-71
2021/08/26 03:36:28;;;;;;;8.00;6.10;;;;;;;12.24;85.62;99522.30;227101;1208;138029;-72
2021/08/26 03:41:30;;;;;;;9.60;6.90;;;;;;;12.19;85.81;99511.41;227034;1202;140681;-71
2021/08/26 03:46:32;;;;;;;8.10;6.30;;;;;;;12.14;86.36;99513.63;227604;1208;138678;-71
2021/08/26 03:51:34;;;;;;;7.60;5.80;;;;;;;12.13;86.90;99509.15;228859;1200;138933;-71
2021/08/26 03:56:35;;;;;;;8.80;6.30;;;;;;;12.16;86.83;99509.11;227322;1201;138456;-72
2021/08/26 04:01:37;;;;;;;8.80;6.20;;;;;;;12.16;86.85;99507.24;227097;1207;137852;-70
2021/08/26 04:06:40;;;;;;;7.40;6.60;;;;;;;12.12;86.88;99496.27;227044;1206;137990;-72
2021/08/26 04:11:42;;;;;;;9.20;6.60;;;;;;;12.04;87.51;99486.79;227002;1206;138579;-73
2021/08/26 04:16:43;;;;;;;9.10;6.90;;;;;;;12.05;87.82;99487.84;226950;1208;139616;-72
2021/08/26 04:21:45;;;;;;;9.90;7.70;;;;;;;12.12;87.70;99487.75;227028;1205;139026;-69
2021/08/26 04:26:47;;;;;;;10.00;7.60;;;;;;;12.16;87.52;99480.75;227269;1207;138375;-71
2021/08/26 04:31:49;;;;;;;13.50;10.50;;;;;;;12.12;87.67;99477.63;227058;1208;138048;-70
2021/08/26 04:36:50;;;;;;;8.30;6.90;;;;;;;12.11;87.94;99471.73;227044;1207;138758;-71
2021/08/26 04:41:52;;;;;;;8.90;5.90;;;;;;;12.12;87.78;99463.39;227018;1208;139139;-70
2021/08/26 04:46:54;;;;;;;9.80;6.50;;;;;;;12.13;87.86;99463.77;226920;1201;140833;-73
2021/08/26 04:51:55;;;;;;;8.30;6.80;;;;;;;12.15;87.88;99469.98;227105;1208;138740;-71
2021/08/26 04:56:57;;;;;;;10.90;8.50;;;;;;;12.19;87.73;99467.76;227124;1208;138422;-71
2021/08/26 05:01:59;;;;;;;9.40;8.00;;;;;;;12.17;87.87;99468.61;227040;1208;138362;-72
2021/08/26 05:07:00;;;;;;;8.00;5.80;;;;;;;12.21;87.58;99468.42;227062;1208;139030;-71
2021/08/26 05:12:05;;;;;;;10.20;8.30;;;;;;;12.21;87.85;99464.34;226912;1207;139067;-71
2021/08/26 05:17:07;;;;;;;11.90;8.80;;;;;;;12.29;87.92;99458.13;227195;1208;139677;-70
2021/08/26 05:22:09;;;;;;;9.40;6.90;;;;;;;12.37;87.52;99456.09;227027;1208;138708;-71
2021/08/26 05:27:10;;;;;;;8.90;6.80;;;;;;;12.32;87.91;99454.33;226929;1206;138553;-72
2021/08/26 05:32:12;;;;;;;9.00;6.50;;;;;;;12.24;88.17;99449.80;227058;1208;139257;-72
2021/08/26 05:37:14;;;;;;;8.00;6.90;;;;;;;12.25;88.54;99446.19;227006;1208;138632;-74
2021/08/26 05:42:16;;;;;;;7.70;6.20;;;;;;;12.29;88.62;99446.05;227162;1206;138465;-72
2021/08/26 05:47:18;;;;;;;7.60;6.70;;;;;;;12.24;89.01;99449.31;227104;1208;137900;-71
2021/08/26 05:52:20;;;;;;;10.60;9.00;;;;;;;12.23;89.17;99453.38;227102;1208;138564;-72
2021/08/26 05:57:21;;;;;;;7.90;6.10;;;;;;;12.26;89.29;99454.91;227174;1208;138999;-72
2021/08/26 06:02:23;;;;;;;7.50;5.90;;;;;;;12.26;89.39;99454.95;227125;1208;139542;-73
2021/08/26 06:07:25;;;;;;;8.10;6.10;;;;;;;12.30;89.54;99458.70;227079;1208;139087;-72
2021/08/26 06:12:26;;;;;;;7.20;6.20;;;;;;;12.44;89.01;99459.39;227368;1208;138134;-72
2021/08/26 06:17:28;;;;;;;7.00;5.90;;;;;;;12.47;88.91;99461.54;227477;1208;137891;-71
2021/08/26 06:22:30;;;;;;;6.10;5.20;;;;;;;12.38;89.44;99463.13;227056;1207;138541;-71
2021/08/26 06:27:32;;;;;;;7.00;5.40;;;;;;;12.45;89.73;99463.52;227667;1208;139327;-71
2021/08/26 06:32:34;;;;;;;5.70;4.60;;;;;;;12.54;89.56;99460.91;227252;1208;138908;-72
2021/08/26 06:37:35;;;;;;;9.80;5.50;;;;;;;12.54;89.61;99457.12;227583;1202;140056;-71
2021/08/26 06:42:37;;;;;;;6.20;5.60;;;;;;;12.61;89.69;99457.23;227299;1203;139452;-72
2021/08/26 06:47:39;;;;;;;5.30;4.40;;;;;;;12.59;89.82;99462.40;227176;1207;138478;-73
2021/08/26 06:52:41;;;;;;;5.80;4.50;;;;;;;12.63;90.01;99463.05;227183;1202;138326;-73
2021/08/26 06:57:42;;;;;;;5.80;4.00;;;;;;;12.77;89.71;99459.59;227228;1199;138799;-70
2021/08/26 07:02:45;;;;;;;4.10;3.60;;;;;;;12.81;89.48;99458.23;227286;1207;140022;-71
2021/08/26 07:07:46;;;;;;;4.80;4.00;;;;;;;12.83;89.84;99464.02;227291;1201;138527;-74
2021/08/26 07:12:48;;;;;;;5.20;4.60;;;;;;;12.99;89.74;99465.79;227274;1207;138783;-72
2021/08/26 07:17:50;;;;;;;4.50;4.00;;;;;;;12.97;89.63;99465.73;227273;1207;138641;-72
2021/08/26 07:22:52;;;;;;;5.60;3.40;;;;;;;13.04;89.54;99463.50;227232;1208;138920;-72
2021/08/26 07:27:54;;;;;;;5.60;3.80;;;;;;;13.16;89.04;99462.58;227707;1207;139059;-71
2021/08/26 07:32:56;;;;;;;11.50;4.60;;;;;;;13.21;88.87;99462.73;227427;1203;139492;-72
2021/08/26 07:37:58;;;;;;;5.80;4.60;;;;;;;13.33;88.92;99462.67;227205;1207;139510;-72
2021/08/26 07:42:59;;;;;;;11.20;6.40;;;;;;;13.41;88.38;99466.61;227339;1200;138303;-70
2021/08/26 07:48:01;;;;;;;8.60;5.30;;;;;;;13.41;88.08;99472.88;227317;1203;138491;-72
2021/08/26 07:53:03;;;;;;;12.20;5.00;;;;;;;13.52;88.54;99462.08;227441;1203;139568;-72
2021/08/26 07:58:04;;;;;;;4.60;3.70;;;;;;;13.67;88.23;99465.67;227322;1207;138786;-71
2021/08/26 08:03:06;;;;;;;3.90;3.60;;;;;;;13.73;87.74;99470.13;227429;1201;139094;-71
2021/08/26 08:08:08;;;;;;;6.00;4.50;;;;;;;13.69;87.52;99470.59;227596;1200;138404;-72
2021/08/26 08:13:09;;;;;;;4.10;3.70;;;;;;;13.71;87.69;99467.30;227323;1202;138844;-71
2021/08/26 08:18:12;;;;;;;11.10;4.70;;;;;;;13.70;87.61;99470.39;226984;1202;138145;-74
2021/08/26 08:23:14;;;;;;;5.80;3.90;;;;;;;13.71;87.52;99472.02;227463;1208;138512;-72
2021/08/26 08:28:17;;;;;;;3.40;3.10;;;;;;;13.78;87.37;99469.54;229796;1200;139097;-72
2021/08/26 08:33:19;;;;;;;3.80;3.40;;;;;;;13.87;87.02;99463.98;231494;1202;139264;-70
2021/08/26 08:38:20;;;;;;;4.50;4.10;;;;;;;13.87;87.16;99465.73;227434;1208;139050;-74
2021/08/26 08:43:22;;;;;;;4.20;3.60;;;;;;;13.89;86.88;99469.19;227330;1206;137863;-72
2021/08/26 08:48:25;;;;;;;6.40;5.70;;;;;;;13.84;87.45;99470.27;227317;1202;138400;-73
2021/08/26 08:53:27;;;;;;;15.90;5.00;;;;;;;13.87;87.35;99464.48;227351;1208;138562;-72
2021/08/26 08:58:29;;;;;;;4.30;2.80;;;;;;;14.01;86.82;99466.86;227254;1208;138683;-73
2021/08/26 09:03:31;;;;;;;4.70;3.50;;;;;;;14.30;86.58;99468.16;227964;1202;139228;-72
2021/08/26 09:08:33;;;;;;;4.10;3.50;;;;;;;14.39;85.45;99470.61;227274;1208;138167;-73
2021/08/26 09:13:34;;;;;;;4.80;2.50;;;;;;;14.36;85.23;99467.40;227297;1207;138495;-71
2021/08/26 09:18:36;;;;;;;3.50;3.20;;;;;;;14.28;85.15;99460.23;227182;1208;138845;-72
2021/08/26 09:23:52;;;;;;;2.00;1.80;;;;;;;14.42;84.98;99465.25;227541;1201;139632;-71
2021/08/26 09:28:59;;;;;;;4.30;2.10;;;;;;;14.61;84.92;99465.54;227257;1208;138902;-72
2021/08/26 09:34:02;;;;;;;6.30;3.40;;;;;;;14.66;83.24;99468.81;227346;1201;138801;-71
2021/08/26 09:39:12;;;;;;;3.00;2.70;;;;;;;14.65;83.09;99458.46;227347;1208;138056;-72
2021/08/26 09:44:17;;;;;;;2.40;2.20;;;;;;;14.73;83.50;99461.59;227258;1207;137853;-73
2021/08/26 09:49:25;;;;;;;2.20;1.80;;;;;;;14.71;83.21;99458.19;226878;1206;138498;-72
2021/08/26 09:54:31;;;;;;;1.80;1.70;;;;;;;14.72;83.00;99458.09;227618;1201;138672;-73
2021/08/26 09:59:51;;;;;;;2.00;1.80;;;;;;;14.76;83.04;99453.07;227220;1206;138357;-72
2021/08/26 10:04:54;;;;;;;2.50;2.10;;;;;;;14.74;83.72;99450.48;227306;1202;137830;-71
2021/08/26 10:09:56;;;;;;;2.60;2.10;;;;;;;14.79;83.54;99450.73;227354;1200;138907;-72
2021/08/26 10:14:58;;;;;;;2.30;1.90;;;;;;;14.91;83.13;99450.46;227399;1208;139712;-72
2021/08/26 10:20:00;;;;;;;2.40;2.20;;;;;;;15.17;82.66;99444.80;227264;1200;139125;-71
2021/08/26 10:25:02;;;;;;;2.30;2.10;;;;;;;15.40;81.00;99448.18;227320;1201;138879;-71
2021/08/26 10:30:05;;;;;;;2.40;2.10;;;;;;;15.36;80.00;99449.48;227913;1200;138346;-72
2021/08/26 10:35:13;;;;;;;2.90;2.30;;;;;;;15.38;81.18;99449.41;227477;1208;138092;-72
2021/08/26 10:40:36;;;;;;;2.70;2.10;;;;;;;15.40;79.77;99453.17;227688;1201;139555;-74
2021/08/26 10:45:49;;;;;;;2.80;2.50;;;;;;;15.51;79.84;99452.96;227156;1201;138808;-69
2021/08/26 10:51:15;;;;;;;2.90;2.60;;;;;;;15.66;79.81;99456.05;227232;1202;138536;-73
2021/08/26 10:56:33;;;;;;;2.30;2.10;;;;;;;15.75;78.69;99456.48;227258;1207;138247;-73
2021/08/26 11:01:44;;;;;;;2.30;2.10;;;;;;;15.66;78.49;99457.86;226940;1207;138594;-71
2021/08/26 11:06:47;;;;;;;2.70;2.40;;;;;;;15.69;77.83;99452.66;227156;1208;139459;-72
2021/08/26 11:11:52;;;;;;;2.70;2.50;;;;;;;15.72;78.46;99455.43;227212;1208;137877;-74
2021/08/26 11:16:57;;;;;;;2.40;2.20;;;;;;;15.74;77.87;99455.47;227061;1207;138009;-73
2021/08/26 11:22:01;;;;;;;2.10;2.00;;;;;;;15.75;77.42;99453.50;226946;1207;138512;-73
2021/08/26 11:27:15;;;;;;;2.70;2.30;;;;;;;15.75;77.39;99458.58;227126;1208;138260;-72
2021/08/26 11:32:20;;;;;;;3.60;2.30;;;;;;;15.86;77.49;99451.11;227129;1208;138516;-72
2021/08/26 11:37:24;;;;;;;3.00;2.70;;;;;;;15.94;76.75;99441.92;227032;1208;138692;-73
2021/08/26 11:42:55;;;;;;;2.40;2.20;;;;;;;16.15;75.88;99451.13;227000;1208;138635;-72
2021/08/26 11:48:03;;;;;;;3.20;2.60;;;;;;;16.18;75.42;99443.20;226917;1201;138560;-73
2021/08/26 11:53:10;;;;;;;2.30;2.10;;;;;;;16.23;75.26;99445.88;227130;1201;138142;-72
2021/08/26 11:58:16;;;;;;;2.30;2.00;;;;;;;16.42;75.20;99444.02;227067;1207;138828;-73
2021/08/26 12:03:18;;;;;;;;;;;;;;;16.41;74.70;99448.00;227002;1208;138577;-72
2021/08/26 12:08:20;;;;;;;2.30;2.10;;;;;;;16.38;73.77;99448.02;227159;1207;124577;-74
2021/08/26 12:13:27;;;;;;;2.60;2.40;;;;;;;16.36;73.28;99449.58;227361;1200;138388;-70
2021/08/26 12:18:31;;;;;;;3.20;2.40;;;;;;;16.43;74.27;99456.15;227870;1208;138018;-73
2021/08/26 12:23:40;;;;;;;3.80;2.70;;;;;;;16.40;73.89;99458.21;227400;1207;139201;-72
2021/08/26 12:28:43;;;;;;;3.20;2.90;;;;;;;16.48;74.47;99453.67;227479;1200;140502;-72
2021/08/26 12:34:06;;;;;;;2.80;2.30;;;;;;;16.63;74.09;99452.75;226949;1201;137937;-72
2021/08/26 12:39:22;;;;;;;3.50;2.20;;;;;;;16.77;72.24;99446.27;227061;1207;138692;-73
2021/08/26 12:44:27;;;;;;;2.90;2.50;;;;;;;17.18;70.53;99434.00;227025;1207;138516;-70
2021/08/26 12:49:45;;;;;;;2.60;2.40;;;;;;;17.29;70.40;99439.20;227070;1201;138179;-73
2021/08/26 12:54:57;;;;;;;3.70;2.20;;;;;;;17.22;69.67;99446.03;226934;1207;137886;-73
2021/08/26 12:59:59;;;;;;;2.20;1.70;;;;;;;16.88;71.55;99457.23;226947;1208;138966;-72
2021/08/26 13:05:10;;;;;;;1.90;1.50;;;;;;;16.37;70.84;99468.12;226989;1207;138263;-71
2021/08/26 13:10:13;;;;;;;2.30;1.70;;;;;;;15.67;71.47;99477.81;227007;1208;138148;-71
2021/08/26 13:15:15;;;;;;;2.20;1.70;;;;;;;15.21;74.75;99483.98;226888;1204;138200;-74
2021/08/26 13:20:18;;;;;;;3.10;1.90;;;;;;;14.90;77.44;99482.11;226976;1208;139120;-76
2021/08/26 13:25:20;;;;;;;2.40;2.20;;;;;;;14.86;77.83;99482.22;227179;1201;138769;-72
2021/08/26 13:30:22;;;;;;;3.60;2.10;;;;;;;14.81;78.04;99476.48;226957;1208;138013;-73
2021/08/26 13:35:24;;;;;;;2.80;2.00;;;;;;;14.71;79.25;99484.61;226875;1207;138332;-71
2021/08/26 13:40:26;;;;;;;3.10;2.00;;;;;;;14.56;81.14;99494.23;226968;1208;138971;-72
2021/08/26 13:45:28;;;;;;;5.80;2.70;;;;;;;14.25;82.06;99496.64;226834;1208;139008;-72
2021/08/26 13:50:30;;;;;;;2.10;1.90;;;;;;;14.20;82.50;99494.38;226941;1200;138689;-73
2021/08/26 13:55:33;;;;;;;2.90;1.30;;;;;;;14.13;82.38;99486.46;227033;1207;137863;-73
2021/08/26 14:00:35;;;;;;;2.00;1.80;;;;;;;14.04;82.63;99483.73;227408;1202;138698;-75
2021/08/26 14:05:37;;;;;;;2.00;1.80;;;;;;;14.05;83.08;99484.95;227631;1200;139032;-72
2021/08/26 14:10:38;;;;;;;3.10;1.60;;;;;;;14.08;83.26;99487.48;228991;1201;138491;-74
2021/08/26 14:15:40;;;;;;;1.30;1.20;;;;;;;14.10;83.32;99479.45;228958;1207;138151;-73
2021/08/26 14:20:42;;;;;;;3.80;1.60;;;;;;;14.17;83.26;99477.16;230439;1201;138456;-74
2021/08/26 14:25:44;;;;;;;2.90;1.80;;;;;;;14.18;82.55;99485.29;228073;1200;138170;-73
2021/08/26 14:30:46;;;;;;;2.20;1.50;;;;;;;14.17;82.89;99497.76;227160;1204;139336;-71
2021/08/26 14:35:48;;;;;;;3.70;2.10;;;;;;;14.14;83.82;99501.58;227108;1204;138752;-72
2021/08/26 14:40:49;;;;;;;2.10;1.90;;;;;;;14.16;83.61;99491.58;226998;1203;138306;-73
2021/08/26 14:45:51;;;;;;;2.70;1.70;;;;;;;14.12;83.73;99478.61;227042;1207;138228;-73
2021/08/26 14:50:53;;;;;;;2.90;1.90;;;;;;;14.14;84.08;99482.83;227055;1200;138881;-73
2021/08/26 14:55:54;;;;;;;2.00;1.80;;;;;;;14.20;83.38;99483.30;227043;1200;138592;-73
2021/08/26 15:00:56;;;;;;;1.80;1.70;;;;;;;14.35;83.00;99478.60;227665;1200;139001;-72
2021/08/26 15:05:58;;;;;;;1.90;1.80;;;;;;;14.37;83.12;99483.15;226965;1207;138203;-73
2021/08/26 15:10:59;;;;;;;2.20;1.50;;;;;;;14.30;83.86;99481.28;227015;1207;139171;-72
2021/08/26 15:16:01;;;;;;;2.00;1.80;;;;;;;14.32;84.11;99483.98;227001;1200;138633;-73
2021/08/26 15:21:03;;;;;;;2.50;2.20;;;;;;;14.45;83.55;99485.27;226993;1208;138309;-73
2021/08/26 15:26:04;;;;;;;2.70;2.10;;;;;;;14.52;83.23;99495.45;226969;1200;138385;-74
2021/08/26 15:31:07;;;;;;;2.60;2.20;;;;;;;14.58;83.92;99506.34;227313;1207;138509;-70
2021/08/26 15:36:08;;;;;;;2.70;1.60;;;;;;;14.58;84.48;99514.33;226975;1201;138513;-72
2021/08/26 15:41:11;;;;;;;2.80;2.50;;;;;;;14.55;84.83;99527.70;227149;1200;138138;-74
2021/08/26 15:46:19;;;;;;;2.40;2.20;;;;;;;14.55;85.05;99519.70;227208;1207;138914;-75
2021/08/26 15:51:24;;;;;;;3.20;2.40;;;;;;;14.50;84.82;99520.84;226991;1200;137849;-73
2021/08/26 15:56:29;;;;;;;3.40;2.30;;;;;;;14.46;85.00;99527.80;226983;1200;138587;-74
2021/08/26 16:01:33;;;;;;;2.20;2.00;;;;;;;14.41;85.11;99534.86;226931;1207;140657;-73
2021/08/26 16:06:35;;;;;;;4.40;2.40;;;;;;;14.42;84.62;99540.27;227251;1208;139049;-72
2021/08/26 16:11:36;;;;;;;3.10;2.60;;;;;;;14.37;84.62;99540.73;227035;1207;138254;-72
2021/08/26 16:16:38;;;;;;;3.00;2.30;;;;;;;14.30;84.93;99544.74;226955;1207;137883;-70
2021/08/26 16:21:40;;;;;;;2.30;2.10;;;;;;;14.28;85.09;99548.67;227066;1207;139009;-73
2021/08/26 16:26:42;;;;;;;3.20;2.70;;;;;;;14.36;85.05;99553.49;227445;1199;138820;-72
2021/08/26 16:31:44;;;;;;;3.30;2.90;;;;;;;14.45;85.03;99555.45;227084;1207;138699;-73
2021/08/26 16:36:46;;;;;;;3.80;3.50;;;;;;;14.42;85.15;99555.31;227054;1208;137730;-72
2021/08/26 16:41:48;;;;;;;4.80;3.90;;;;;;;14.30;85.59;99554.20;227152;1203;138247;-71
2021/08/26 16:46:51;;;;;;;3.40;2.80;;;;;;;14.27;86.01;99558.96;227128;1207;138982;-71
2021/08/26 16:51:53;;;;;;;5.40;2.90;;;;;;;14.23;85.76;99565.79;227054;1207;139970;-73
2021/08/26 16:56:54;;;;;;;3.60;3.30;;;;;;;14.21;85.59;99570.96;227059;1207;138734;-71
2021/08/26 17:01:57;;;;;;;2.80;2.60;;;;;;;14.21;85.47;99569.60;227181;1207;137909;-74
2021/08/26 17:06:58;;;;;;;2.70;2.50;;;;;;;14.16;85.50;99570.77;226918;1207;138489;-72
2021/08/26 17:12:00;;;;;;;2.30;2.10;;;;;;;14.08;85.56;99576.08;226890;1199;138679;-74
2021/08/26 17:17:02;;;;;;;4.60;2.50;;;;;;;14.07;85.69;99578.45;226857;1207;138766;-72
2021/08/26 17:22:04;;;;;;;3.40;3.10;;;;;;;14.06;85.69;99578.45;226868;1207;138404;-72
2021/08/26 17:27:06;;;;;;;5.60;3.20;;;;;;;14.03;86.21;99585.91;227155;1199;137824;-73
2021/08/26 17:32:08;;;;;;;4.20;2.80;;;;;;;13.96;86.31;99580.91;226882;1201;138581;-72
2021/08/26 17:37:12;;;;;;;3.30;2.90;;;;;;;13.95;86.33;99583.69;226900;1207;139086;-70
2021/08/26 17:42:14;;;;;;;3.80;3.10;;;;;;;13.93;86.27;99582.52;226971;1207;139286;-73
2021/08/26 17:47:16;;;;;;;3.10;2.80;;;;;;;13.95;86.11;99582.64;226896;1207;139045;-72
2021/08/26 17:52:17;;;;;;;3.00;2.80;;;;;;;13.89;86.25;99591.20;227374;1200;137909;-73
2021/08/26 17:57:19;;;;;;;3.00;2.70;;;;;;;13.87;86.41;99598.75;226894;1199;138491;-71
2021/08/26 18:02:20;;;;;;;3.30;2.70;;;;;;;13.79;86.55;99609.81;226928;1207;138980;-72
2021/08/26 18:07:22;;;;;;;6.70;4.20;;;;;;;13.75;86.95;99617.23;227264;1201;138852;-72
2021/08/26 18:12:24;;;;;;;5.20;4.10;;;;;;;13.76;86.85;99622.65;227084;1207;138125;-73
2021/08/26 18:17:26;;;;;;;4.00;3.60;;;;;;;13.74;87.17;99623.30;226949;1200;137959;-73
2021/08/26 18:22:27;;;;;;;3.80;3.30;;;;;;;13.73;87.12;99622.84;226872;1208;138316;-72
2021/08/26 18:27:29;;;;;;;4.40;3.10;;;;;;;13.67;87.22;99631.41;227018;1207;139533;-73
2021/08/26 18:32:31;;;;;;;3.50;3.10;;;;;;;13.64;87.48;99639.23;226901;1200;139301;-72
2021/08/26 18:37:33;;;;;;;4.90;4.20;;;;;;;13.71;87.33;99646.80;226991;1207;138666;-72
2021/08/26 18:42:35;;;;;;;6.20;5.10;;;;;;;13.71;86.96;99651.05;226953;1207;138794;-72
2021/08/26 18:47:36;;;;;;;5.70;4.10;;;;;;;13.67;87.14;99647.55;227012;1207;138866;-76
2021/08/26 18:52:38;;;;;;;5.50;4.20;;;;;;;13.68;87.26;99646.91;226805;1200;139564;-72
2021/08/26 18:57:40;;;;;;;5.30;3.90;;;;;;;13.71;87.02;99652.27;227407;1201;138672;-71
2021/08/26 19:02:41;;;;;;;4.10;3.60;;;;;;;13.72;86.89;99655.31;227361;1201;138483;-72
2021/08/26 19:07:43;;;;;;;4.60;3.70;;;;;;;13.65;87.09;99657.38;227180;1207;138242;-73
2021/08/26 19:12:45;;;;;;;4.10;3.70;;;;;;;13.58;87.37;99656.94;226982;1201;138114;-72
2021/08/26 19:17:47;;;;;;;4.10;3.70;;;;;;;13.65;87.37;99654.05;227116;1199;139024;-72
2021/08/26 19:22:49;;;;;;;4.70;4.00;;;;;;;13.67;87.32;99657.02;226862;1207;138793;-73
2021/08/26 19:27:51;;;;;;;7.70;6.80;;;;;;;13.70;87.50;99657.54;227114;1207;138633;-75
2021/08/26 19:32:53;;;;;;;6.20;5.60;;;;;;;13.75;86.93;99660.77;227191;1200;138404;-72
2021/08/26 19:37:55;;;;;;;6.50;4.20;;;;;;;13.66;87.01;99656.97;226889;1207;138086;-74
2021/08/26 19:42:56;;;;;;;6.80;4.70;;;;;;;13.58;87.34;99655.55;226960;1203;138976;-74
2021/08/26 19:47:58;;;;;;;4.60;4.20;;;;;;;13.46;87.85;99654.76;227795;1203;138614;-76
2021/08/26 19:53:00;;;;;;;6.90;5.20;;;;;;;13.43;88.38;99654.61;228184;1207;141529;-75
2021/08/26 19:58:02;;;;;;;5.50;5.00;;;;;;;13.45;88.22;99657.04;231594;1200;139163;-72
2021/08/26 20:03:04;;;;;;;7.30;6.30;;;;;;;13.49;87.90;99656.05;227404;1201;138946;-72
2021/08/26 20:08:06;;;;;;;9.10;7.60;;;;;;;13.48;87.76;99652.94;226949;1207;138290;-72
2021/08/26 20:13:07;;;;;;;7.90;7.10;;;;;;;13.41;87.82;99652.12;226903;1207;139090;-73
2021/08/26 20:18:10;;;;;;;6.70;5.90;;;;;;;13.34;88.07;99658.43;226906;1207;139682;-75
2021/08/26 20:23:12;;;;;;;7.50;6.80;;;;;;;13.32;88.26;99665.76;227135;1207;138684;-72
2021/08/26 20:28:14;;;;;;;6.60;5.90;;;;;;;13.36;88.04;99673.80;226997;1207;138824;-75
2021/08/26 20:33:16;;;;;;;6.90;6.30;;;;;;;13.40;87.77;99675.23;227532;1201;139109;-73
2021/08/26 20:38:18;;;;;;;6.10;5.60;;;;;;;13.34;87.88;99671.75;227092;1202;139252;-75
2021/08/26 20:43:19;;;;;;;7.00;6.10;;;;;;;13.34;87.77;99670.27;227384;1207;138816;-73
2021/08/26 20:48:21;;;;;;;5.50;5.00;;;;;;;13.32;87.83;99667.30;227277;1201;139358;-71
2021/08/26 20:53:22;;;;;;;5.50;5.00;;;;;;;13.38;87.55;99668.52;227023;1207;139106;-73
2021/08/26 20:58:25;;;;;;;8.50;5.80;;;;;;;13.39;87.16;99665.35;227094;1207;138725;-72
2021/08/26 21:03:26;;;;;;;6.00;5.40;;;;;;;13.35;87.10;99668.33;227361;1207;139051;-72
2021/08/26 21:08:28;;;;;;;6.20;5.60;;;;;;;13.32;86.73;99677.80;227407;1201;138153;-71
2021/08/26 21:13:30;;;;;;;6.10;5.20;;;;;;;13.23;86.86;99687.61;227186;1207;137967;-72
2021/08/26 21:18:31;;;;;;;5.70;4.60;;;;;;;13.16;87.01;99694.41;227010;1207;138569;-69
2021/08/26 21:23:33;;;;;;;5.20;4.60;;;;;;;13.15;86.82;99698.54;226896;1207;140802;-75
2021/08/26 21:28:35;;;;;;;4.50;4.10;;;;;;;13.23;86.07;99699.98;226892;1207;138565;-74
2021/08/26 21:33:37;;;;;;;6.00;5.10;;;;;;;13.26;85.56;99706.97;227016;1207;138704;-72
2021/08/26 21:38:38;;;;;;;5.50;4.80;;;;;;;13.25;85.55;99713.54;227037;1207;138027;-72
2021/08/26 21:43:40;;;;;;;4.50;4.10;;;;;;;13.22;85.77;99722.91;226989;1208;138257;-73
2021/08/26 21:48:42;;;;;;;5.70;5.20;;;;;;;13.22;85.84;99732.59;227250;1208;139480;-73
2021/08/26 21:53:44;;;;;;;5.60;4.40;;;;;;;13.14;86.16;99736.16;227358;1208;138844;-73
2021/08/26 21:58:45;;;;;;;5.30;4.70;;;;;;;13.23;86.28;99737.39;227077;1208;139268;-73
2021/08/26 22:03:47;;;;;;;5.00;4.50;;;;;;;13.24;85.88;99742.48;226952;1207;137826;-71
2021/08/26 22:08:49;;;;;;;5.90;4.90;;;;;;;13.22;85.69;99749.37;227003;1207;138410;-71
2021/08/26 22:13:50;;;;;;;4.60;4.00;;;;;;;13.21;85.79;99745.63;226801;1207;138842;-68
2021/08/26 22:18:52;;;;;;;5.30;4.80;;;;;;;13.22;85.81;99743.73;227009;1207;139109;-70
2021/08/26 22:23:55;;;;;;;6.30;4.70;;;;;;;13.24;85.75;99744.98;228723;1208;138153;-71
2021/08/26 22:28:58;;;;;;;6.50;5.30;;;;;;;13.20;86.03;99751.95;227199;1208;138225;-72
2021/08/26 22:34:00;;;;;;;5.60;4.80;;;;;;;13.25;86.08;99748.23;227149;1208;139130;-70
2021/08/26 22:39:02;;;;;;;5.30;4.60;;;;;;;13.28;85.93;99744.14;227094;1208;138937;-72
2021/08/26 22:44:07;;;;;;;4.90;4.50;;;;;;;13.19;86.47;99746.55;227046;1203;138363;-71
2021/08/26 22:49:09;;;;;;;5.40;5.00;;;;;;;13.20;86.67;99746.96;226971;1208;138314;-74
2021/08/26 22:54:10;;;;;;;6.00;4.90;;;;;;;13.18;86.60;99744.73;227042;1201;138236;-73
2021/08/26 22:59:12;;;;;;;6.00;5.40;;;;;;;13.15;86.74;99746.52;226962;1208;139329;-73
2021/08/26 23:04:14;;;;;;;5.70;5.20;;;;;;;13.20;86.72;99746.34;226953;1207;138560;-72
2021/08/26 23:09:16;;;;;;;5.80;5.30;;;;;;;13.29;86.04;99749.44;227051;1207;138699;-72
2021/08/26 23:14:18;;;;;;;5.40;4.60;;;;;;;13.31;86.05;99750.96;226932;1208;138110;-75
2021/08/26 23:19:19;;;;;;;5.40;4.90;;;;;;;13.36;86.11;99750.23;227292;1206;137868;-72